createdAt,value
2018-08-16T00:00:17.932Z,101578.01
2018-08-16T00:02:47.310Z,101576.36
2018-08-16T00:05:16.246Z,101577.59
2018-08-16T00:07:45.689Z,101575.54
2018-08-16T00:10:16.657Z,101572.08
2018-08-16T00:12:46.954Z,101570.13
2018-08-16T00:15:16.898Z,101567.03
2018-08-16T00:17:45.952Z,101571.45
2018-08-16T00:20:15.408Z,101564.34
2018-08-16T00:22:44.729Z,101566.40
2018-08-16T00:25:14.004Z,101567.29
2018-08-16T00:27:43.291Z,101568.21
2018-08-16T00:30:16.853Z,101562.83
2018-08-16T00:32:45.953Z,101559.27
2018-08-16T00:35:14.876Z,101558.81
2018-08-16T00:37:43.929Z,101552.05
2018-08-16T00:40:14.848Z,101555.58
2018-08-16T00:42:43.817Z,101549.27
2018-08-16T00:45:13.155Z,101557.89
2018-08-16T00:47:42.415Z,101547.94
2018-08-16T00:50:12.758Z,101555.68
2018-08-16T00:52:41.492Z,101553.86
2018-08-16T00:55:16.359Z,101558.31
2018-08-16T00:57:51.237Z,101558.64
2018-08-16T01:00:25.002Z,101551.89
2018-08-16T01:02:58.241Z,101544.11
2018-08-16T01:05:28.510Z,101544.50
2018-08-16T01:07:58.914Z,101539.61
2018-08-16T01:10:28.823Z,101537.20
2018-08-16T01:12:59.135Z,101533.55
2018-08-16T01:15:27.955Z,101532.17
2018-08-16T01:17:57.088Z,101522.59
2018-08-16T01:20:25.879Z,101518.60
2018-08-16T01:22:54.739Z,101529.88
2018-08-16T01:25:31.266Z,101517.42
2018-08-16T01:28:00.349Z,101516.22
2018-08-16T01:30:29.334Z,101520.42
2018-08-16T01:32:58.108Z,101512.89
2018-08-16T01:35:26.825Z,101513.38
2018-08-16T01:37:55.539Z,101518.31
2018-08-16T01:40:24.554Z,101516.94
2018-08-16T01:42:53.291Z,101514.84
2018-08-16T01:45:28.993Z,101511.37
2018-08-16T01:47:57.732Z,101506.34
2018-08-16T01:50:26.676Z,101503.69
2018-08-16T01:52:55.745Z,101506.86
2018-08-16T01:55:24.539Z,101505.38
2018-08-16T01:57:53.336Z,101506.59
2018-08-16T02:00:22.143Z,101511.83
2018-08-16T02:02:51.126Z,101511.37
2018-08-16T02:05:20.322Z,101509.52
2018-08-16T02:07:49.044Z,101511.13
2018-08-16T02:10:17.801Z,101503.70
2018-08-16T02:12:46.778Z,101500.97
2018-08-16T02:15:15.538Z,101500.52
2018-08-16T02:17:44.631Z,101500.18
2018-08-16T02:20:15.132Z,101499.15
2018-08-16T02:22:44.986Z,101505.17
2018-08-16T02:25:14.016Z,101496.75
2018-08-16T02:27:42.779Z,101492.05
2018-08-16T02:30:11.743Z,101494.10
2018-08-16T02:32:40.633Z,101487.01
2018-08-16T02:35:09.919Z,101485.25
2018-08-16T02:37:39.178Z,101486.62
2018-08-16T02:40:08.834Z,101489.94
2018-08-16T02:42:38.153Z,101483.19
2018-08-16T02:45:07.239Z,101479.17
2018-08-16T02:47:36.326Z,101480.08
2018-08-16T02:50:05.125Z,101482.82
2018-08-16T02:52:33.888Z,101486.02
2018-08-16T02:55:03.235Z,101483.52
2018-08-16T02:57:32.390Z,101483.85
2018-08-16T03:00:01.196Z,101475.25
2018-08-16T03:02:30.281Z,101475.34
2018-08-16T03:04:59.298Z,101474.98
2018-08-16T03:07:28.341Z,101469.84
2018-08-16T03:09:57.130Z,101468.77
2018-08-16T03:12:26.716Z,101458.50
2018-08-16T03:14:56.409Z,101467.83
2018-08-16T03:17:25.597Z,101459.71
2018-08-16T03:19:54.402Z,101452.87
2018-08-16T03:22:23.231Z,101454.02
2018-08-16T03:24:52.223Z,101457.64
2018-08-16T03:27:22.750Z,101453.87
2018-08-16T03:29:51.532Z,101449.86
2018-08-16T03:32:20.955Z,101457.28
2018-08-16T03:34:49.707Z,101447.13
2018-08-16T03:37:18.527Z,101443.81
2018-08-16T03:39:47.560Z,101446.23
2018-08-16T03:42:16.317Z,101447.82
2018-08-16T03:44:45.361Z,101446.45
2018-08-16T03:47:14.649Z,101449.77
2018-08-16T03:49:43.792Z,101454.91
2018-08-16T03:52:12.811Z,101457.98
2018-08-16T03:54:41.837Z,101450.44
2018-08-16T03:57:10.850Z,101452.93
2018-08-16T03:59:39.839Z,101449.16
2018-08-16T04:02:08.875Z,101451.16
2018-08-16T04:04:37.776Z,101446.27
2018-08-16T04:07:07.090Z,101458.01
2018-08-16T04:09:36.655Z,101448.22
2018-08-16T04:12:06.535Z,101446.45
2018-08-16T04:14:35.269Z,101451.67
2018-08-16T04:17:04.447Z,101453.96
2018-08-16T04:19:33.496Z,101454.29
2018-08-16T04:22:02.791Z,101454.63
2018-08-16T04:24:32.218Z,101449.95
2018-08-16T04:27:01.741Z,101447.78
2018-08-16T04:29:31.121Z,101450.83
2018-08-16T04:32:00.155Z,101452.52
2018-08-16T04:34:29.253Z,101454.72
2018-08-16T04:36:58.220Z,101453.64
2018-08-16T04:39:26.982Z,101456.54
2018-08-16T04:41:57.145Z,101456.87
2018-08-16T04:44:26.035Z,101460.19
2018-08-16T04:46:55.041Z,101458.81
2018-08-16T04:49:24.469Z,101452.28
2018-08-16T04:51:54.309Z,101456.08
2018-08-16T04:54:23.426Z,101453.02
2018-08-16T04:56:52.602Z,101459.52
2018-08-16T04:59:21.461Z,101460.80
2018-08-16T05:01:50.868Z,101463.53
2018-08-16T05:04:19.888Z,101456.36
2018-08-16T05:06:49.314Z,101459.25
2018-08-16T05:09:18.801Z,101466.55
2018-08-16T05:11:48.405Z,101466.45
2018-08-16T05:14:17.728Z,101469.11
2018-08-16T05:16:46.938Z,101468.44
2018-08-16T05:19:16.553Z,101470.53
2018-08-16T05:21:45.543Z,101461.98
2018-08-16T05:24:14.585Z,101466.46
2018-08-16T05:26:43.706Z,101461.14
2018-08-16T05:29:12.738Z,101462.91
2018-08-16T05:31:41.606Z,101454.59
2018-08-16T05:34:10.642Z,101456.08
2018-08-16T05:36:39.404Z,101460.34
2018-08-16T05:39:10.759Z,101464.50
2018-08-16T05:41:39.943Z,101455.62
2018-08-16T05:44:09.116Z,101453.48
2018-08-16T05:46:37.949Z,101458.07
2018-08-16T05:49:07.023Z,101456.52
2018-08-16T05:51:35.778Z,101458.14
2018-08-16T05:54:04.908Z,101457.37
2018-08-16T05:56:33.910Z,101454.09
2018-08-16T05:59:03.011Z,101451.88
2018-08-16T06:01:32.717Z,101450.11
2018-08-16T06:04:01.716Z,101453.44
2018-08-16T06:06:30.698Z,101453.63
2018-08-16T06:08:59.413Z,101446.22
2018-08-16T06:11:28.498Z,101445.92
2018-08-16T06:13:57.225Z,101445.27
2018-08-16T06:16:25.981Z,101443.09
2018-08-16T06:18:54.761Z,101436.75
2018-08-16T06:21:23.469Z,101430.25
2018-08-16T06:23:52.210Z,101427.84
2018-08-16T06:26:21.263Z,101435.09
2018-08-16T06:28:50.008Z,101428.38
2018-08-16T06:31:19.084Z,101434.44
2018-08-16T06:33:47.818Z,101428.70
2018-08-16T06:36:16.681Z,101433.98
2018-08-16T06:38:45.597Z,101437.30
2018-08-16T06:41:14.309Z,101435.55
2018-08-16T06:43:43.440Z,101431.63
2018-08-16T06:46:12.185Z,101430.02
2018-08-16T06:48:41.018Z,101429.58
2018-08-16T06:51:10.317Z,101424.63
2018-08-16T06:53:39.199Z,101428.70
2018-08-16T06:56:10.549Z,101428.28
2018-08-16T06:58:40.300Z,101424.20
2018-08-16T07:01:09.785Z,101426.58
2018-08-16T07:03:38.887Z,101421.26
2018-08-16T07:06:08.056Z,101424.12
2018-08-16T07:08:37.568Z,101416.23
2018-08-16T07:11:06.586Z,101411.07
2018-08-16T07:13:35.369Z,101411.13
2018-08-16T07:16:04.119Z,101415.39
2018-08-16T07:18:33.027Z,101418.62
2018-08-16T07:21:01.797Z,101410.84
2018-08-16T07:23:31.114Z,101411.11
2018-08-16T07:26:00.181Z,101413.97
2018-08-16T07:28:28.971Z,101401.48
2018-08-16T07:30:58.119Z,101400.14
2018-08-16T07:33:26.866Z,101398.84
2018-08-16T07:35:55.976Z,101401.73
2018-08-16T07:38:24.786Z,101401.16
2018-08-16T07:40:53.859Z,101390.50
2018-08-16T07:43:22.607Z,101395.95
2018-08-16T07:45:51.768Z,101392.58
2018-08-16T07:48:20.381Z,101392.69
2018-08-16T07:50:49.414Z,101396.27
2018-08-16T07:53:18.225Z,101394.05
2018-08-16T07:55:46.994Z,101391.11
2018-08-16T07:58:15.782Z,101396.34
2018-08-16T08:00:44.529Z,101394.21
2018-08-16T08:03:13.885Z,101403.86
2018-08-16T08:05:42.651Z,101402.63
2018-08-16T08:08:11.682Z,101401.22
2018-08-16T08:10:40.531Z,101407.31
2018-08-16T08:13:09.283Z,101404.67
2018-08-16T08:15:38.105Z,101402.66
2018-08-16T08:18:07.014Z,101395.09
2018-08-16T08:20:36.493Z,101402.53
2018-08-16T08:23:06.422Z,101398.49
2018-08-16T08:25:35.410Z,101397.45
2018-08-16T08:28:04.123Z,101392.66
2018-08-16T08:30:33.231Z,101392.44
2018-08-16T08:33:02.037Z,101387.50
2018-08-16T08:35:31.103Z,101387.80
2018-08-16T08:38:05.800Z,101376.45
2018-08-16T08:40:34.789Z,101383.98
2018-08-16T08:43:03.687Z,101379.23
2018-08-16T08:45:32.431Z,101382.81
2018-08-16T08:48:01.163Z,101381.14
2018-08-16T08:50:30.401Z,101373.19
2018-08-16T08:53:09.907Z,101374.72
2018-08-16T08:55:49.712Z,101374.33
2018-08-16T08:58:29.618Z,101372.78
2018-08-16T09:00:58.748Z,101363.03
2018-08-16T09:03:27.730Z,101364.32
2018-08-16T09:05:56.844Z,101369.86
2018-08-16T09:08:25.784Z,101362.42
2018-08-16T09:11:11.029Z,101364.02
2018-08-16T09:13:51.772Z,101362.09
2018-08-16T09:16:24.816Z,101361.98
2018-08-16T09:18:54.293Z,101354.17
2018-08-16T09:21:23.050Z,101358.16
2018-08-16T09:23:52.127Z,101357.22
2018-08-16T09:26:26.165Z,101360.59
2018-08-16T09:28:55.219Z,101362.40
2018-08-16T09:31:35.093Z,101360.84
2018-08-16T09:34:15.494Z,101357.34
2018-08-16T09:36:44.595Z,101350.42
2018-08-16T09:39:13.598Z,101350.61
2018-08-16T09:41:42.934Z,101356.98
2018-08-16T09:44:11.953Z,101351.03
2018-08-16T09:46:54.610Z,101351.81
2018-08-16T09:49:23.374Z,101360.16
2018-08-16T09:51:52.136Z,101351.80
2018-08-16T09:54:21.983Z,101355.39
2018-08-16T09:56:51.362Z,101341.11
2018-08-16T09:59:20.527Z,101352.38
2018-08-16T10:01:49.348Z,101351.61
2018-08-16T10:04:18.161Z,101350.94
2018-08-16T10:06:47.167Z,101351.13
2018-08-16T10:09:21.729Z,101353.55
2018-08-16T10:11:50.547Z,101355.52
2018-08-16T10:14:19.745Z,101356.08
2018-08-16T10:16:48.906Z,101350.97
2018-08-16T10:19:18.186Z,101346.53
2018-08-16T10:21:47.192Z,101346.38
2018-08-16T10:24:15.917Z,101342.11
2018-08-16T10:26:44.964Z,101343.28
2018-08-16T10:29:14.109Z,101344.50
2018-08-16T10:31:43.210Z,101342.14
2018-08-16T10:34:12.164Z,101343.62
2018-08-16T10:36:41.293Z,101342.91
2018-08-16T10:39:11.860Z,101340.91
2018-08-16T10:41:41.198Z,101341.58
2018-08-16T10:44:09.967Z,101330.45
2018-08-16T10:46:39.015Z,101328.65
2018-08-16T10:49:07.916Z,101325.11
2018-08-16T10:51:36.970Z,101331.61
2018-08-16T10:54:06.115Z,101329.95
2018-08-16T10:56:34.823Z,101325.03
2018-08-16T10:59:04.260Z,101330.43
2018-08-16T11:01:33.060Z,101330.78
2018-08-16T11:04:02.038Z,101326.39
2018-08-16T11:06:31.109Z,101326.97
2018-08-16T11:09:00.095Z,101333.61
2018-08-16T11:11:28.899Z,101324.91
2018-08-16T11:13:58.150Z,101323.63
2018-08-16T11:16:27.350Z,101317.13
2018-08-16T11:18:56.272Z,101326.22
2018-08-16T11:21:25.245Z,101322.00
2018-08-16T11:23:54.298Z,101320.41
2018-08-16T11:26:23.748Z,101325.37
2018-08-16T11:28:52.520Z,101326.03
2018-08-16T11:31:21.642Z,101328.27
2018-08-16T11:33:50.377Z,101327.03
2018-08-16T11:36:19.620Z,101313.59
2018-08-16T11:38:48.371Z,101312.81
2018-08-16T11:41:17.096Z,101305.56
2018-08-16T11:43:46.068Z,101312.19
2018-08-16T11:46:15.164Z,101308.86
2018-08-16T11:48:43.947Z,101308.17
2018-08-16T11:51:12.658Z,101300.33
2018-08-16T11:53:41.732Z,101298.70
2018-08-16T11:56:10.818Z,101299.89
2018-08-16T11:58:39.630Z,101299.42
2018-08-16T12:01:08.890Z,101298.40
2018-08-16T12:03:38.147Z,101296.23
2018-08-16T12:06:07.046Z,101297.46
2018-08-16T12:08:35.829Z,101291.03
2018-08-16T12:11:04.643Z,101298.91
2018-08-16T12:13:33.655Z,101296.77
2018-08-16T12:16:02.946Z,101291.20
2018-08-16T12:18:31.720Z,101296.03
2018-08-16T12:21:00.538Z,101293.58
2018-08-16T12:23:29.343Z,101300.05
2018-08-16T12:25:58.336Z,101300.60
2018-08-16T12:28:27.108Z,101297.16
2018-08-16T12:30:55.910Z,101295.91
2018-08-16T12:33:25.012Z,101290.61
2018-08-16T12:36:57.923Z,101282.80
2018-08-16T12:39:27.370Z,101283.19
2018-08-16T12:41:56.492Z,101276.14
2018-08-16T12:44:25.526Z,101275.46
2018-08-16T12:46:54.482Z,101272.91
2018-08-16T12:49:23.564Z,101280.84
2018-08-16T12:51:52.567Z,101286.37
2018-08-16T12:54:21.321Z,101279.80
2018-08-16T12:56:50.042Z,101278.66
2018-08-16T12:59:19.012Z,101282.93
2018-08-16T13:01:48.335Z,101283.88
2018-08-16T13:04:17.049Z,101276.16
2018-08-16T13:06:46.035Z,101274.69
2018-08-16T13:09:14.829Z,101273.91
2018-08-16T13:11:43.618Z,101269.74
2018-08-16T13:14:12.591Z,101276.26
2018-08-16T13:16:41.813Z,101267.16
2018-08-16T13:19:10.955Z,101270.58
2018-08-16T13:21:39.600Z,101273.36
2018-08-16T13:24:08.695Z,101273.58
2018-08-16T13:26:38.070Z,101265.29
2018-08-16T13:29:06.889Z,101267.05
2018-08-16T13:31:36.165Z,101261.96
2018-08-16T13:34:05.290Z,101266.45
2018-08-16T13:36:35.241Z,101267.34
2018-08-16T13:39:06.730Z,101254.97
2018-08-16T13:41:35.793Z,101255.80
2018-08-16T13:44:04.713Z,101255.13
2018-08-16T13:46:33.444Z,101246.48
2018-08-16T13:49:02.754Z,101250.47
2018-08-16T13:51:31.650Z,101246.57
2018-08-16T13:54:00.901Z,101250.77
2018-08-16T13:56:30.943Z,101247.94
2018-08-16T13:59:00.147Z,101256.94
2018-08-16T14:01:29.345Z,101247.44
2018-08-16T14:03:59.747Z,101252.11
2018-08-16T14:06:31.684Z,101255.28
2018-08-16T14:09:02.208Z,101247.29
2018-08-16T14:11:33.135Z,101254.28
2018-08-16T14:14:03.222Z,101250.45
2018-08-16T14:16:33.781Z,101252.42
2018-08-16T14:19:02.824Z,101251.02
2018-08-16T14:21:33.414Z,101254.71
2018-08-16T14:24:04.513Z,101254.50
2018-08-16T14:26:33.338Z,101249.95
2018-08-16T14:29:03.310Z,101258.11
2018-08-16T14:31:32.767Z,101259.02
2018-08-16T14:34:01.778Z,101270.01
2018-08-16T14:36:30.879Z,101260.94
2018-08-16T14:38:59.656Z,101263.23
2018-08-16T14:41:29.389Z,101255.33
2018-08-16T14:43:58.633Z,101258.44
2018-08-16T14:46:27.685Z,101264.48
2018-08-16T14:48:56.465Z,101269.66
2018-08-16T14:51:28.013Z,101265.14
2018-08-16T14:53:58.413Z,101268.91
2018-08-16T14:56:27.480Z,101265.41
2018-08-16T14:58:56.614Z,101262.63
2018-08-16T15:01:25.655Z,101256.28
2018-08-16T15:03:54.913Z,101260.33
2018-08-16T15:06:23.749Z,101262.28
2018-08-16T15:08:52.482Z,101264.22
2018-08-16T15:11:21.598Z,101266.80
2018-08-16T15:13:50.349Z,101270.42
2018-08-16T15:16:19.361Z,101260.48
2018-08-16T15:18:48.186Z,101271.92
2018-08-16T15:21:17.564Z,101271.42
2018-08-16T15:23:46.383Z,101277.45
2018-08-16T15:26:16.283Z,101277.37
2018-08-16T15:28:45.347Z,101273.28
2018-08-16T15:31:14.434Z,101274.69
2018-08-16T15:33:43.190Z,101275.30
2018-08-16T15:36:12.598Z,101274.55
2018-08-16T15:38:41.306Z,101272.58
2018-08-16T15:41:10.154Z,101279.91
2018-08-16T15:43:40.211Z,101281.58
2018-08-16T15:46:09.091Z,101283.75
2018-08-16T15:48:37.843Z,101284.77
2018-08-16T15:51:07.023Z,101286.20
2018-08-16T15:53:35.749Z,101289.59
2018-08-16T15:56:04.528Z,101287.44
2018-08-16T15:58:33.273Z,101284.48
2018-08-16T16:01:02.248Z,101286.48
2018-08-16T16:03:31.000Z,101287.06
2018-08-16T16:06:00.141Z,101286.89
2018-08-16T16:08:28.912Z,101285.91
2018-08-16T16:10:57.689Z,101282.73
2018-08-16T16:13:26.473Z,101290.11
2018-08-16T16:15:55.188Z,101292.08
2018-08-16T16:18:24.763Z,101299.22
2018-08-16T16:20:53.842Z,101302.74
2018-08-16T16:23:22.953Z,101297.78
2018-08-16T16:25:51.990Z,101304.73
2018-08-16T16:28:21.098Z,101304.92
2018-08-16T16:30:49.955Z,101292.17
2018-08-16T16:33:18.947Z,101305.05
2018-08-16T16:35:48.241Z,101302.67
2018-08-16T16:38:17.218Z,101305.64
2018-08-16T16:40:46.195Z,101296.51
2018-08-16T16:43:15.398Z,101298.25
2018-08-16T16:45:44.365Z,101306.59
2018-08-16T16:48:13.095Z,101303.22
2018-08-16T16:50:41.835Z,101314.13
2018-08-16T16:53:11.082Z,101305.39
2018-08-16T16:55:40.743Z,101297.98
2018-08-16T16:58:09.713Z,101302.88
2018-08-16T17:00:38.750Z,101298.72
2018-08-16T17:03:07.810Z,101295.98
2018-08-16T17:05:36.791Z,101296.73
2018-08-16T17:08:05.567Z,101292.98
2018-08-16T17:10:34.367Z,101294.80
2018-08-16T17:13:03.045Z,101294.64
2018-08-16T17:15:31.834Z,101291.30
2018-08-16T17:18:00.761Z,101293.09
2018-08-16T17:20:29.712Z,101290.73
2018-08-16T17:22:58.565Z,101297.41
2018-08-16T17:25:27.265Z,101291.08
2018-08-16T17:27:57.055Z,101289.47
2018-08-16T17:30:26.442Z,101290.21
2018-08-16T17:32:55.218Z,101288.63
2018-08-16T17:35:25.030Z,101285.25
2018-08-16T17:37:54.123Z,101287.40
2018-08-16T17:40:23.325Z,101284.99
2018-08-16T17:42:52.015Z,101284.94
2018-08-16T17:45:20.725Z,101284.53
2018-08-16T17:47:49.526Z,101289.86
2018-08-16T17:50:18.862Z,101289.69
2018-08-16T17:52:47.840Z,101287.87
2018-08-16T17:55:17.144Z,101285.89
2018-08-16T17:57:46.179Z,101285.50
2018-08-16T18:00:15.805Z,101285.28
2018-08-16T18:02:44.822Z,101290.23
2018-08-16T18:05:13.548Z,101294.14
2018-08-16T18:07:42.606Z,101291.73
2018-08-16T18:10:11.371Z,101291.31
2018-08-16T18:12:40.479Z,101294.08
2018-08-16T18:15:10.741Z,101292.81
2018-08-16T18:17:39.536Z,101285.25
2018-08-16T18:20:08.920Z,101288.16
2018-08-16T18:22:38.423Z,101287.95
2018-08-16T18:25:08.258Z,101292.28
2018-08-16T18:27:37.362Z,101286.88
2018-08-16T18:30:07.579Z,101291.37
2018-08-16T18:32:36.364Z,101294.11
2018-08-16T18:35:05.528Z,101294.77
2018-08-16T18:37:34.270Z,101289.14
2018-08-16T18:40:03.000Z,101292.47
2018-08-16T18:42:31.782Z,101302.11
2018-08-16T18:45:01.043Z,101289.88
2018-08-16T18:47:29.917Z,101305.09
2018-08-16T18:49:58.702Z,101304.27
2018-08-16T18:52:27.964Z,101307.67
2018-08-16T18:54:57.053Z,101304.58
2018-08-16T18:57:25.851Z,101307.72
2018-08-16T18:59:54.966Z,101307.63
2018-08-16T19:02:25.527Z,101319.00
2018-08-16T19:04:54.978Z,101323.83
2018-08-16T19:07:23.829Z,101321.80
2018-08-16T19:09:52.570Z,101325.53
2018-08-16T19:12:21.837Z,101329.48
2018-08-16T19:14:50.550Z,101338.05
2018-08-16T19:17:19.366Z,101335.08
2018-08-16T19:19:48.090Z,101337.75
2018-08-16T19:22:16.854Z,101335.20
2018-08-16T19:24:45.694Z,101341.81
2018-08-16T19:27:17.221Z,101340.73
2018-08-16T19:29:58.628Z,101339.33
2018-08-16T19:32:27.756Z,101339.34
2018-08-16T19:34:56.821Z,101344.50
2018-08-16T19:37:26.246Z,101348.62
2018-08-16T19:39:55.000Z,101351.51
2018-08-16T19:42:23.720Z,101354.08
2018-08-16T19:44:52.610Z,101349.57
2018-08-16T19:47:21.338Z,101355.31
2018-08-16T19:49:50.365Z,101353.52
2018-08-16T19:52:21.883Z,101350.19
2018-08-16T19:54:51.098Z,101343.13
2018-08-16T19:57:20.487Z,101354.92
2018-08-16T19:59:49.241Z,101351.61
2018-08-16T20:02:18.474Z,101347.67
2018-08-16T20:04:47.703Z,101342.16
2018-08-16T20:07:16.418Z,101353.19
2018-08-16T20:09:45.563Z,101357.26
2018-08-16T20:12:14.597Z,101353.27
2018-08-16T20:14:43.308Z,101350.00
2018-08-16T20:17:12.509Z,101341.19
2018-08-16T20:19:41.288Z,101346.83
2018-08-16T20:22:18.488Z,101346.97
2018-08-16T20:24:47.928Z,101343.43
2018-08-16T20:27:17.183Z,101333.80
2018-08-16T20:29:47.706Z,101332.64
2018-08-16T20:32:16.959Z,101330.53
2018-08-16T20:34:45.842Z,101337.32
2018-08-16T20:37:14.975Z,101332.31
2018-08-16T20:39:43.693Z,101338.17
2018-08-16T20:42:12.498Z,101331.85
2018-08-16T20:44:41.462Z,101332.45
2018-08-16T20:47:10.431Z,101322.36
2018-08-16T20:49:39.436Z,101326.65
2018-08-16T20:52:08.272Z,101318.66
2018-08-16T20:54:37.090Z,101317.78
2018-08-16T20:57:06.176Z,101320.21
2018-08-16T20:59:35.842Z,101324.08
2018-08-16T21:02:07.172Z,101320.09
2018-08-16T21:04:37.041Z,101319.70
2018-08-16T21:07:08.687Z,101321.34
2018-08-16T21:09:37.907Z,101323.42
2018-08-16T21:12:06.817Z,101332.04
2018-08-16T21:14:35.889Z,101324.15
2018-08-16T21:17:04.868Z,101324.53
2018-08-16T21:19:33.648Z,101325.58
2018-08-16T21:22:02.753Z,101323.55
2018-08-16T21:24:34.553Z,101319.12
2018-08-16T21:27:03.661Z,101309.06
2018-08-16T21:29:33.140Z,101312.30
2018-08-16T21:32:02.111Z,101311.63
2018-08-16T21:34:31.278Z,101306.03
2018-08-16T21:37:00.256Z,101313.61
2018-08-16T21:39:29.130Z,101320.97
2018-08-16T21:42:04.283Z,101319.13
2018-08-16T21:44:33.734Z,101329.69
2018-08-16T21:47:02.968Z,101330.17
2018-08-16T21:49:33.129Z,101326.17
2018-08-16T21:52:01.870Z,101327.19
2018-08-16T21:54:40.676Z,101322.17
2018-08-16T21:57:10.215Z,101325.48
2018-08-16T21:59:39.545Z,101326.19
2018-08-16T22:02:08.937Z,101332.16
2018-08-16T22:04:39.503Z,101328.36
2018-08-16T22:07:16.310Z,101326.32
2018-08-16T22:09:45.591Z,101330.10
2018-08-16T22:12:14.335Z,101325.08
2018-08-16T22:14:43.451Z,101332.07
2018-08-16T22:17:12.371Z,101330.03
2018-08-16T22:19:41.583Z,101329.92
2018-08-16T22:22:10.455Z,101325.13
2018-08-16T22:24:39.670Z,101321.92
2018-08-16T22:27:08.559Z,101320.43
2018-08-16T22:29:37.763Z,101319.53
2018-08-16T22:32:07.554Z,101321.02
2018-08-16T22:34:36.842Z,101318.75
2018-08-16T22:37:06.137Z,101317.84
2018-08-16T22:39:34.920Z,101318.55
2018-08-16T22:42:03.748Z,101315.25
2018-08-16T22:44:34.451Z,101313.17
2018-08-16T22:47:07.058Z,101323.13
2018-08-16T22:49:40.667Z,101319.13
2018-08-16T22:52:11.375Z,101313.56
2018-08-16T22:54:41.913Z,101312.06
2018-08-16T22:57:12.658Z,101316.30
2018-08-16T22:59:43.460Z,101305.78
2018-08-16T23:02:15.620Z,101311.73
2018-08-16T23:04:46.112Z,101306.37
2018-08-16T23:07:17.321Z,101311.73
2018-08-16T23:09:46.278Z,101307.38
2018-08-16T23:12:15.207Z,101305.11
2018-08-16T23:14:44.397Z,101299.50
2018-08-16T23:17:13.288Z,101303.38
2018-08-16T23:19:42.245Z,101295.61
2018-08-16T23:22:11.020Z,101296.98
2018-08-16T23:24:40.251Z,101297.09
2018-08-16T23:27:09.581Z,101290.34
2018-08-16T23:29:38.480Z,101290.22
2018-08-16T23:32:07.629Z,101298.91
2018-08-16T23:34:36.753Z,101292.75
2018-08-16T23:37:06.824Z,101302.47
2018-08-16T23:39:36.330Z,101309.78
2018-08-16T23:42:05.395Z,101306.12
2018-08-16T23:44:34.178Z,101310.22
2018-08-16T23:47:03.453Z,101311.92
2018-08-16T23:49:32.433Z,101317.16
2018-08-16T23:52:01.246Z,101326.52
2018-08-16T23:54:30.082Z,101330.02
2018-08-16T23:56:59.065Z,101336.05
2018-08-16T23:59:27.850Z,101338.31
